Time;durP1;ratioP1;P1;durP2;ratioP2;P2;SDS_P1;SDS_P2;PMS_P1;PMS_P2;Temp;Humidity;BMP_temperature;BMP_pressure;BME280_temperature;BME280_humidity;BME280_pressure;Samples;Min_cycle;Max_cycle;Signal;HPM_P1;HPM_P2
2022/04/29 00:01:35;;;;;;;0.90;0.37;;;13.30;99.90;;;;;;5032184;28;20512;-80
2022/04/29 00:04:05;;;;;;;8.80;8.13;;;13.20;99.90;;;;;;5031551;28;20571;-80
2022/04/29 00:06:33;;;;;;;1.33;1.13;;;13.20;99.90;;;;;;5026463;28;20939;-80
2022/04/29 00:09:00;;;;;;;0.97;0.87;;;13.20;99.90;;;;;;5025624;28;20458;-80
2022/04/29 00:11:28;;;;;;;2.00;1.20;;;13.20;99.90;;;;;;5026009;28;20524;-80
2022/04/29 00:13:56;;;;;;;101.07;9.07;;;13.10;99.90;;;;;;5002502;28;20466;-81
2022/04/29 00:16:25;;;;;;;0.60;0.20;;;13.10;99.90;;;;;;4992716;28;20442;-81
2022/04/29 00:18:53;;;;;;;0.60;0.20;;;13.10;99.90;;;;;;4993987;28;20482;-81
2022/04/29 00:21:23;;;;;;;0.60;0.10;;;13.10;99.90;;;;;;4991052;28;20507;-81
2022/04/29 00:23:51;;;;;;;1.33;0.77;;;13.00;99.90;;;;;;4990746;28;20447;-81
2022/04/29 00:26:19;;;;;;;0.80;0.60;;;13.00;99.90;;;;;;5002963;28;20438;-82
2022/04/29 00:28:47;;;;;;;0.60;0.10;;;14.50;99.90;;;;;;5026098;28;20441;-81
2022/04/29 00:31:15;;;;;;;0.60;0.20;;;13.00;99.90;;;;;;4986877;28;20487;-81
2022/04/29 00:33:43;;;;;;;0.90;0.67;;;13.00;99.90;;;;;;4990533;28;20438;-80
2022/04/29 00:36:11;;;;;;;0.70;0.40;;;13.00;99.90;;;;;;4995862;28;20449;-81
2022/04/29 00:38:40;;;;;;;4.10;0.97;;;13.00;99.90;;;;;;5000149;28;20517;-81
2022/04/29 00:41:08;;;;;;;1.63;1.53;;;12.90;99.90;;;;;;4995909;28;20509;-82
2022/04/29 00:43:36;;;;;;;3.90;0.83;;;12.90;99.90;;;;;;4993808;28;20451;-82
2022/04/29 00:46:08;;;;;;;0.90;0.60;;;12.90;99.90;;;;;;4990127;28;20555;-82
2022/04/29 00:48:36;;;;;;;0.67;0.53;;;13.30;99.90;;;;;;4990106;28;20436;-78
2022/04/29 00:51:04;;;;;;;1.37;1.03;;;12.90;99.90;;;;;;4988619;28;20458;-81
2022/04/29 00:53:32;;;;;;;1.07;0.97;;;12.80;99.90;;;;;;4988075;28;20497;-81
2022/04/29 00:56:03;;;;;;;1.67;1.57;;;12.70;99.90;;;;;;4989063;28;20527;-80
2022/04/29 00:58:34;;;;;;;0.60;0.30;;;12.70;99.90;;;;;;4990821;28;20460;-81
2022/04/29 01:01:03;;;;;;;0.60;0.10;;;12.70;1.00;;;;;;4992097;28;20456;-80
2022/04/29 01:03:35;;;;;;;0.80;0.40;;;12.70;1.00;;;;;;5000822;28;20501;-80
2022/04/29 01:06:03;;;;;;;0.80;0.73;;;12.70;1.00;;;;;;5008413;28;20550;-81
2022/04/29 01:08:31;;;;;;;0.70;0.40;;;12.70;1.00;;;;;;5007299;28;20524;-80
2022/04/29 01:10:59;;;;;;;0.80;0.50;;;12.70;1.00;;;;;;5007071;28;20531;-81
2022/04/29 01:13:29;;;;;;;0.93;0.57;;;12.70;1.00;;;;;;5005200;28;20486;-80
2022/04/29 01:15:57;;;;;;;0.60;0.30;;;12.70;1.00;;;;;;5007547;28;20496;-81
2022/04/29 01:18:27;;;;;;;0.60;0.10;;;12.70;1.00;;;;;;5005197;28;20559;-80
2022/04/29 01:21:03;;;;;;;0.60;0.10;;;12.70;1.00;;;;;;5016171;28;20449;-81
2022/04/29 01:23:33;;;;;;;0.70;0.30;;;12.80;1.00;;;;;;5018845;28;20461;-80
2022/04/29 01:26:01;;;;;;;0.60;0.20;;;12.70;1.00;;;;;;5018625;28;20452;-81
2022/04/29 01:28:30;;;;;;;0.70;0.50;;;12.70;1.00;;;;;;5019616;28;20480;-81
2022/04/29 01:31:00;;;;;;;2.20;2.00;;;12.70;1.00;;;;;;5016379;28;20468;-81
2022/04/29 01:33:28;;;;;;;0.90;0.67;;;12.60;1.00;;;;;;5013699;28;20538;-80
2022/04/29 01:35:56;;;;;;;4.00;2.10;;;12.50;1.00;;;;;;5014335;28;20546;-81
2022/04/29 01:38:24;;;;;;;0.60;0.10;;;12.50;1.00;;;;;;5016014;28;20494;-81
2022/04/29 01:40:53;;;;;;;0.60;0.10;;;12.50;1.00;;;;;;5007905;28;20519;-81
2022/04/29 01:43:21;;;;;;;0.60;0.10;;;12.50;1.00;;;;;;4990686;28;20522;-81
2022/04/29 01:45:49;;;;;;;0.60;0.10;;;12.50;1.00;;;;;;4995081;28;20496;-81
2022/04/29 01:48:17;;;;;;;0.60;0.30;;;12.50;1.00;;;;;;4998716;28;20530;-80
2022/04/29 01:50:45;;;;;;;1.47;1.37;;;12.50;1.00;;;;;;4999592;28;20450;-81
2022/04/29 01:53:13;;;;;;;0.70;0.40;;;12.60;1.00;;;;;;4997934;28;20558;-81
2022/04/29 01:55:41;;;;;;;2.37;0.60;;;12.50;1.00;;;;;;5007411;28;20465;-81
2022/04/29 01:58:10;;;;;;;0.60;0.10;;;12.40;1.00;;;;;;5018102;28;20457;-81
2022/04/29 02:00:38;;;;;;;0.60;0.10;;;12.40;1.00;;;;;;5020421;28;20509;-80
2022/04/29 02:03:07;;;;;;;0.60;0.10;;;12.30;1.00;;;;;;5032381;28;20546;-81
2022/04/29 02:05:35;;;;;;;1.63;1.53;;;12.30;1.00;;;;;;5032762;28;20470;-82
2022/04/29 02:08:03;;;;;;;0.60;0.10;;;12.30;1.00;;;;;;5036475;28;20530;-81
2022/04/29 02:10:31;;;;;;;2.40;1.60;;;12.20;1.00;;;;;;5003297;28;20443;-81
2022/04/29 02:12:59;;;;;;;0.60;0.10;;;12.20;1.00;;;;;;5002540;28;20483;-81
2022/04/29 02:15:28;;;;;;;0.60;0.10;;;12.10;1.00;;;;;;5042778;23;20503;-82
2022/04/29 02:17:56;;;;;;;4.27;3.97;;;12.10;1.00;;;;;;5064344;28;20530;-81
2022/04/29 02:20:25;;;;;;;0.60;0.27;;;12.10;1.00;;;;;;5065192;28;20540;-81
2022/04/29 02:22:54;;;;;;;0.77;0.67;;;12.10;1.00;;;;;;5062363;28;20440;-80
2022/04/29 02:25:22;;;;;;;0.60;0.10;;;12.00;1.00;;;;;;5065835;28;20555;-80
2022/04/29 02:27:50;;;;;;;0.70;0.53;;;12.00;1.00;;;;;;5067436;28;20597;-81
2022/04/29 02:30:18;;;;;;;0.60;0.20;;;12.00;1.00;;;;;;5065951;28;20454;-80
2022/04/29 02:32:47;;;;;;;0.60;0.10;;;12.00;1.00;;;;;;5065208;28;20990;-81
2022/04/29 02:35:16;;;;;;;0.60;0.10;;;12.00;1.00;;;;;;5060803;28;20543;-81
2022/04/29 02:37:44;;;;;;;0.70;0.40;;;12.00;1.00;;;;;;5044676;28;20547;-79
2022/04/29 02:40:12;;;;;;;0.60;0.20;;;12.00;1.00;;;;;;5039630;28;20474;-79
2022/04/29 02:42:40;;;;;;;0.77;0.43;;;12.00;1.00;;;;;;5039777;28;20451;-81
2022/04/29 02:45:09;;;;;;;0.60;0.20;;;12.00;1.00;;;;;;5055506;28;20646;-80
2022/04/29 02:47:37;;;;;;;0.60;0.10;;;;;;;;;;5058137;28;20469;-80
2022/04/29 02:50:08;;;;;;;1.37;1.27;;;11.90;1.00;;;;;;5058577;28;20447;-80
2022/04/29 02:52:36;;;;;;;3.63;3.43;;;11.90;1.00;;;;;;5038582;28;20835;-81
2022/04/29 02:55:04;;;;;;;0.60;0.30;;;11.90;1.00;;;;;;5038785;28;20456;-82
2022/04/29 02:57:33;;;;;;;0.60;0.10;;;11.90;1.00;;;;;;5039495;28;20965;-80
2022/04/29 03:00:01;;;;;;;0.60;0.10;;;11.90;1.00;;;;;;5040035;28;20518;-80
2022/04/29 03:02:29;;;;;;;0.60;0.17;;;11.90;1.00;;;;;;5040984;28;20949;-81
2022/04/29 03:04:57;;;;;;;0.60;0.30;;;11.90;1.00;;;;;;5052287;28;20463;-80
2022/04/29 03:07:26;;;;;;;0.83;0.63;;;11.90;1.00;;;;;;5056379;28;20501;-81
2022/04/29 03:09:54;;;;;;;0.60;0.17;;;11.90;1.00;;;;;;5060142;28;20438;-80
2022/04/29 03:12:24;;;;;;;5.50;1.83;;;11.90;1.00;;;;;;5070000;28;20439;-80
2022/04/29 03:14:52;;;;;;;2.00;0.83;;;11.90;1.00;;;;;;5069500;28;20476;-80
2022/04/29 03:20:07;;;;;;;0.60;0.40;;;11.80;1.00;;;;;;5074990;28;20455;-82
2022/04/29 03:22:36;;;;;;;4.30;2.67;;;11.80;1.00;;;;;;5074443;28;20483;-80
2022/04/29 03:25:06;;;;;;;0.80;0.23;;;11.80;1.00;;;;;;5073911;28;20462;-82
2022/04/29 03:27:34;;;;;;;0.60;0.20;;;11.70;1.00;;;;;;5074234;28;20459;-80
2022/04/29 03:30:02;;;;;;;2.00;1.80;;;11.70;1.00;;;;;;5065875;28;20503;-81
2022/04/29 03:32:34;;;;;;;0.60;0.20;;;11.70;1.00;;;;;;5053312;28;20450;-80
2022/04/29 03:35:02;;;;;;;0.60;0.30;;;11.70;1.00;;;;;;5053728;28;20850;-79
2022/04/29 03:37:31;;;;;;;0.60;0.10;;;11.60;1.00;;;;;;5047102;28;20479;-79
2022/04/29 03:40:00;;;;;;;0.60;0.10;;;11.60;1.00;;;;;;5039914;28;20454;-79
2022/04/29 03:42:28;;;;;;;0.90;0.60;;;11.60;1.00;;;;;;5061153;28;20463;-79
2022/04/29 03:44:56;;;;;;;1.37;0.63;;;11.60;1.00;;;;;;5060289;28;20478;-81
2022/04/29 03:47:24;;;;;;;0.60;0.10;;;11.60;1.00;;;;;;5065296;28;20696;-78
2022/04/29 03:49:56;;;;;;;0.70;0.50;;;11.60;1.00;;;;;;5069656;28;20462;-79
2022/04/29 03:52:24;;;;;;;2.73;1.57;;;11.50;1.00;;;;;;5072171;28;20493;-80
2022/04/29 03:54:53;;;;;;;0.60;0.10;;;11.50;1.00;;;;;;5067105;28;20474;-80
2022/04/29 03:57:22;;;;;;;0.60;0.10;;;11.40;1.00;;;;;;5063217;28;20525;-81
2022/04/29 03:59:50;;;;;;;0.60;0.20;;;11.40;1.00;;;;;;5070921;28;20499;-80
2022/04/29 04:02:18;;;;;;;4.00;0.73;;;11.40;1.00;;;;;;5060458;28;20455;-75
2022/04/29 04:04:48;;;;;;;1.20;0.67;;;11.50;1.00;;;;;;5062031;28;21237;-81
2022/04/29 04:07:18;;;;;;;0.60;0.10;;;11.50;1.00;;;;;;5056813;28;20509;-80
2022/04/29 04:09:47;;;;;;;0.93;0.83;;;11.50;1.00;;;;;;5070158;28;20446;-81
2022/04/29 04:12:15;;;;;;;0.60;0.20;;;11.50;1.00;;;;;;5052379;28;20872;-81
2022/04/29 04:14:44;;;;;;;1.37;0.77;;;11.40;1.00;;;;;;5052695;28;20474;-81
2022/04/29 04:17:12;;;;;;;0.90;0.67;;;;;;;;;;5061912;28;20450;-82
2022/04/29 04:19:43;;;;;;;0.60;0.10;;;11.40;1.00;;;;;;5052933;28;20508;-81
2022/04/29 04:22:11;;;;;;;2.20;2.10;;;11.40;1.00;;;;;;5055631;28;20444;-80
2022/04/29 04:24:39;;;;;;;0.70;0.23;;;11.30;1.00;;;;;;5056202;28;20470;-81
2022/04/29 04:27:08;;;;;;;2.20;1.10;;;;;;;;;;5067306;28;20430;-81
2022/04/29 04:29:36;;;;;;;1.00;0.30;;;11.30;1.00;;;;;;5073020;28;20507;-81
2022/04/29 04:32:06;;;;;;;0.60;0.10;;;11.30;1.00;;;;;;5073663;28;20496;-83
2022/04/29 04:34:53;;;;;;;0.60;0.10;;;11.40;1.00;;;;;;5072460;28;20514;-80
2022/04/29 04:37:22;;;;;;;0.60;0.10;;;11.40;1.00;;;;;;5059839;28;20549;-80
2022/04/29 04:39:51;;;;;;;0.60;0.10;;;11.40;1.00;;;;;;5051154;28;20452;-81
2022/04/29 04:42:19;;;;;;;0.60;0.10;;;11.40;1.00;;;;;;5041125;28;20530;-82
2022/04/29 04:44:49;;;;;;;0.60;0.10;;;11.50;1.00;;;;;;5047544;28;20463;-81
2022/04/29 04:47:19;;;;;;;0.80;0.20;;;11.60;1.00;;;;;;5039002;28;20443;-82
2022/04/29 04:49:47;;;;;;;0.70;0.47;;;11.60;1.00;;;;;;5040694;28;20443;-81
2022/04/29 04:52:15;;;;;;;0.60;0.30;;;11.60;1.00;;;;;;5038759;28;20455;-81
2022/04/29 04:54:43;;;;;;;0.60;0.10;;;11.60;1.00;;;;;;5039074;28;20494;-82
2022/04/29 04:57:11;;;;;;;0.60;0.17;;;11.60;1.00;;;;;;5056096;28;20450;-83
2022/04/29 04:59:39;;;;;;;0.60;0.20;;;11.70;1.00;;;;;;5039609;28;20452;-82
2022/04/29 05:02:08;;;;;;;0.60;0.10;;;11.70;1.00;;;;;;5040291;28;20474;-80
2022/04/29 05:04:37;;;;;;;0.70;0.20;;;11.70;1.00;;;;;;5039597;28;20455;-83
2022/04/29 05:07:05;;;;;;;0.60;0.20;;;11.70;1.00;;;;;;5039584;28;20454;-81
2022/04/29 05:09:33;;;;;;;1.47;0.77;;;11.80;1.00;;;;;;5040119;28;20450;-81
2022/04/29 05:12:01;;;;;;;2.60;2.17;;;11.80;1.00;;;;;;5039919;28;20448;-81
2022/04/29 05:14:35;;;;;;;0.60;0.10;;;;;;;;;;5045166;28;20465;-82
2022/04/29 05:17:04;;;;;;;0.60;0.10;;;12.00;1.00;;;;;;5055270;28;20453;-81
2022/04/29 05:19:32;;;;;;;5.30;4.03;;;12.10;1.00;;;;;;5065183;28;20497;-82
2022/04/29 05:22:01;;;;;;;0.60;0.20;;;12.10;1.00;;;;;;5062918;28;20443;-83
2022/04/29 05:24:30;;;;;;;0.60;0.20;;;12.20;1.00;;;;;;5055480;28;20431;-81
2022/04/29 05:26:59;;;;;;;0.60;0.10;;;;;;;;;;5058716;28;20517;-81
2022/04/29 05:29:27;;;;;;;0.60;0.10;;;12.30;1.00;;;;;;5063937;28;20443;-83
2022/04/29 05:31:54;;;;;;;0.60;0.10;;;12.30;1.00;;;;;;5067791;28;20439;-82
2022/04/29 05:34:23;;;;;;;0.77;0.47;;;12.40;1.00;;;;;;5072878;28;20461;-82
2022/04/29 05:36:51;;;;;;;2.53;2.33;;;12.40;1.00;;;;;;5077332;28;20485;-81
2022/04/29 05:42:17;;;;;;;0.60;0.20;;;12.40;1.00;;;;;;5077335;28;20465;-82
2022/04/29 05:44:46;;;;;;;0.60;0.10;;;;;;;;;;5073089;28;20502;-83
2022/04/29 05:47:14;;;;;;;0.80;0.50;;;;;;;;;;5075798;28;20435;-82
2022/04/29 05:49:43;;;;;;;0.60;0.10;;;12.60;1.00;;;;;;5063075;28;20462;-80
2022/04/29 05:52:12;;;;;;;0.60;0.10;;;12.70;1.00;;;;;;5072389;28;20477;-81
2022/04/29 05:54:41;;;;;;;0.70;0.30;;;12.70;1.00;;;;;;5073295;28;20507;-81
2022/04/29 05:57:12;;;;;;;0.60;0.10;;;;;;;;;;5065886;28;20447;-82
2022/04/29 05:59:40;;;;;;;0.60;0.40;;;12.80;1.00;;;;;;5066106;28;20576;-81
2022/04/29 06:02:09;;;;;;;0.70;0.57;;;12.80;1.00;;;;;;5068422;28;20442;-83
2022/04/29 06:04:37;;;;;;;0.80;0.77;;;12.90;1.00;;;;;;5063255;28;20484;-83
2022/04/29 06:07:06;;;;;;;1.50;0.87;;;12.90;1.00;;;;;;5063504;28;20501;-82
2022/04/29 06:09:34;;;;;;;0.60;0.10;;;12.90;1.00;;;;;;5077146;28;20447;-83
2022/04/29 06:12:04;;;;;;;0.60;0.10;;;12.90;1.00;;;;;;5077452;28;20454;-83
2022/04/29 06:14:32;;;;;;;0.60;0.10;;;12.90;1.00;;;;;;5074337;28;20483;-82
2022/04/29 06:17:00;;;;;;;1.40;1.17;;;13.00;1.00;;;;;;5075924;28;20415;-82
2022/04/29 06:19:28;;;;;;;0.90;0.53;;;;;;;;;;5056951;28;20437;-83
2022/04/29 06:21:56;;;;;;;0.60;0.10;;;13.00;1.00;;;;;;5055287;28;20455;-83
2022/04/29 06:24:24;;;;;;;0.60;0.20;;;;;;;;;;5048095;28;20443;-82
2022/04/29 06:26:52;;;;;;;0.60;0.20;;;13.00;1.00;;;;;;5067644;28;20447;-82
2022/04/29 06:29:21;;;;;;;0.60;0.10;;;13.10;1.00;;;;;;5077509;28;20447;-82
2022/04/29 06:31:53;;;;;;;0.60;0.10;;;13.00;1.00;;;;;;5067917;28;20490;-82
2022/04/29 06:34:22;;;;;;;0.60;0.10;;;13.10;1.00;;;;;;5043300;28;20495;-81
2022/04/29 06:36:52;;;;;;;0.60;0.20;;;;;;;;;;5047219;28;20455;-83
2022/04/29 06:39:20;;;;;;;0.70;0.50;;;13.00;1.00;;;;;;5043361;28;20439;-80
2022/04/29 06:41:48;;;;;;;0.60;0.10;;;13.00;1.00;;;;;;5041957;28;20455;-83
2022/04/29 06:44:16;;;;;;;0.60;0.10;;;13.00;1.00;;;;;;5043681;28;20448;-82
2022/04/29 06:46:45;;;;;;;1.00;0.60;;;13.10;1.00;;;;;;5056624;28;20682;-81
2022/04/29 06:49:13;;;;;;;0.60;0.10;;;13.10;1.00;;;;;;5073045;28;20510;-81
2022/04/29 06:51:41;;;;;;;4.00;3.60;;;;;;;;;;5077615;28;20427;-82
2022/04/29 06:54:09;;;;;;;0.60;0.10;;;13.10;1.00;;;;;;5072507;28;20454;-81
2022/04/29 06:56:37;;;;;;;0.60;0.20;;;13.10;1.00;;;;;;5063455;28;20486;-84
2022/04/29 06:59:05;;;;;;;2.57;2.47;;;13.20;1.00;;;;;;5063579;28;20442;-81
2022/04/29 07:01:36;;;;;;;0.60;0.10;;;13.30;1.00;;;;;;5061253;28;20484;-80
2022/04/29 07:04:06;;;;;;;0.60;0.10;;;13.30;1.00;;;;;;5060444;28;20443;-84
2022/04/29 07:06:34;;;;;;;0.60;0.10;;;;;;;;;;5061851;28;20463;-82
2022/04/29 07:09:03;;;;;;;2.30;0.60;;;13.40;1.00;;;;;;5061885;28;20449;-82
2022/04/29 07:11:32;;;;;;;0.60;0.10;;;13.40;1.00;;;;;;5066769;28;20467;-81
2022/04/29 07:14:00;;;;;;;0.60;0.30;;;13.50;1.00;;;;;;5072847;28;20463;-81
2022/04/29 07:16:30;;;;;;;0.90;0.20;;;;;;;;;;5072101;28;20537;-81
2022/04/29 07:19:03;;;;;;;1.27;0.30;;;13.60;1.00;;;;;;5063689;28;20520;-81
2022/04/29 07:21:33;;;;;;;0.60;0.10;;;13.60;99.90;;;;;;5072636;28;20477;-81
2022/04/29 07:24:01;;;;;;;0.60;0.27;;;13.70;99.90;;;;;;5068681;28;20523;-81
2022/04/29 07:26:29;;;;;;;1.60;1.50;;;13.80;99.90;;;;;;5050987;28;20554;-82
2022/04/29 07:28:57;;;;;;;0.60;0.10;;;13.80;99.90;;;;;;5039449;28;20450;-80
2022/04/29 07:31:25;;;;;;;0.60;0.10;;;13.80;99.90;;;;;;5041696;28;20444;-82
2022/04/29 07:33:53;;;;;;;1.90;1.70;;;13.90;99.90;;;;;;5052725;28;20473;-81
2022/04/29 07:41:56;;;;;;;0.60;0.20;;;;;;;;;;5062720;28;20447;-81
2022/04/29 07:44:24;;;;;;;0.60;0.10;;;14.40;99.90;;;;;;5058940;28;20505;-80
2022/04/29 07:46:53;;;;;;;0.60;0.30;;;14.40;99.90;;;;;;5064454;28;20507;-82
2022/04/29 07:49:22;;;;;;;0.60;0.10;;;14.50;99.90;;;;;;5075487;28;20433;-83
2022/04/29 07:51:50;;;;;;;0.60;0.10;;;;;;;;;;5072211;28;20516;-82
2022/04/29 07:54:20;;;;;;;0.60;0.10;;;;;;;;;;5063664;28;20435;-82
2022/04/29 07:56:48;;;;;;;0.60;0.10;;;15.00;99.90;;;;;;5073722;28;20470;-83
2022/04/29 07:59:16;;;;;;;0.90;0.73;;;15.00;99.90;;;;;;5074474;28;20471;-81
2022/04/29 08:01:44;;;;;;;0.97;0.77;;;;;;;;;;5071004;28;20454;-82
2022/04/29 08:04:13;;;;;;;0.60;0.10;;;15.30;99.90;;;;;;5067284;28;20519;-83
2022/04/29 08:06:41;;;;;;;0.60;0.10;;;15.30;99.90;;;;;;5059674;28;20495;-83
2022/04/29 08:09:31;;;;;;;0.60;0.10;;;15.90;99.90;;;;;;5062944;28;20454;-82
2022/04/29 08:12:06;;;;;;;0.60;0.10;;;15.60;99.90;;;;;;5072129;28;20480;-82
2022/04/29 08:14:34;;;;;;;1.23;0.30;;;15.70;99.90;;;;;;5069105;28;20468;-83
2022/04/29 08:17:16;;;;;;;0.60;0.10;;;15.70;99.90;;;;;;5048650;28;20485;-83
2022/04/29 08:19:44;;;;;;;0.60;0.10;;;15.80;99.90;;;;;;5042463;28;20641;-83
2022/04/29 08:22:12;;;;;;;0.60;0.10;;;;;;;;;;5045311;28;20433;-83
2022/04/29 08:24:42;;;;;;;0.60;0.10;;;16.20;99.90;;;;;;5054816;28;20450;-82
2022/04/29 08:27:12;;;;;;;0.60;0.10;;;16.20;99.90;;;;;;5055160;28;20451;-85
2022/04/29 08:29:40;;;;;;;0.60;0.10;;;16.50;99.90;;;;;;5042212;28;20467;-81
2022/04/29 08:32:08;;;;;;;0.60;0.20;;;16.60;99.90;;;;;;5039548;28;21038;-82
2022/04/29 08:34:37;;;;;;;0.60;0.10;;;16.70;99.90;;;;;;5048077;28;20441;-84
2022/04/29 08:37:06;;;;;;;0.60;0.10;;;16.70;99.90;;;;;;5056224;28;20475;-83
2022/04/29 08:39:34;;;;;;;0.60;0.10;;;16.90;99.90;;;;;;5056646;28;20451;-83
2022/04/29 08:42:07;;;;;;;0.60;0.20;;;17.00;99.90;;;;;;5052993;28;20441;-84
2022/04/29 08:44:35;;;;;;;0.60;0.10;;;17.20;99.90;;;;;;5042293;28;20450;-84
2022/04/29 08:47:08;;;;;;;0.60;0.10;;;17.30;99.90;;;;;;5042230;28;20475;-83
2022/04/29 08:49:38;;;;;;;0.60;0.13;;;;;;;;;;5059605;28;20453;-82
2022/04/29 08:52:20;;;;;;;0.60;0.20;;;17.40;99.90;;;;;;5074274;28;20420;-86
2022/04/29 09:00:25;;;;;;;0.60;0.10;;;17.70;99.90;;;;;;5064009;28;20460;-81
2022/04/29 09:02:54;;;;;;;0.60;0.10;;;17.80;99.90;;;;;;5064269;28;20490;-83
2022/04/29 09:05:23;;;;;;;0.60;0.10;;;;;;;;;;5063050;28;20543;-83
2022/04/29 09:07:52;;;;;;;0.60;0.10;;;18.10;99.90;;;;;;5063148;28;20480;-84
2022/04/29 09:10:21;;;;;;;6.63;2.97;;;18.10;99.90;;;;;;5062526;28;20443;-82
2022/04/29 09:12:52;;;;;;;0.70;0.47;;;18.10;99.90;;;;;;5043629;28;20570;-83
2022/04/29 09:15:21;;;;;;;0.60;0.10;;;18.20;99.90;;;;;;5042824;28;20470;-82
2022/04/29 09:17:51;;;;;;;0.60;0.17;;;18.20;99.90;;;;;;5043286;28;20492;-82
2022/04/29 09:20:21;;;;;;;0.60;0.13;;;18.40;99.90;;;;;;5042560;28;20972;-83
2022/04/29 09:22:51;;;;;;;0.60;0.10;;;18.50;99.90;;;;;;5042645;28;20459;-80
2022/04/29 09:25:22;;;;;;;0.60;0.10;;;18.70;99.90;;;;;;5044411;28;20482;-81
2022/04/29 09:27:58;;;;;;;0.60;0.10;;;18.80;99.90;;;;;;5043872;28;20536;-81
2022/04/29 09:30:38;;;;;;;0.60;0.10;;;19.00;99.90;;;;;;5044879;28;20553;-82
2022/04/29 09:33:08;;;;;;;0.60;0.10;;;;;;;;;;5051161;28;20545;-82
2022/04/29 09:35:37;;;;;;;0.60;0.10;;;;;;;;;;5054140;28;20474;-83
2022/04/29 09:40:58;;;;;;;0.60;0.10;;;19.30;99.90;;;;;;5043143;28;20786;-84
2022/04/29 09:43:40;;;;;;;2.20;0.73;;;19.40;99.90;;;;;;5044428;28;20445;-84
2022/04/29 09:46:13;;;;;;;0.60;0.10;;;19.40;99.90;;;;;;5043286;28;20540;-83
2022/04/29 09:49:02;;;;;;;0.60;0.10;;;19.40;99.90;;;;;;5043797;28;20453;-83
2022/04/29 09:51:48;;;;;;;0.60;0.10;;;19.30;99.90;;;;;;5042387;28;20452;-85
2022/04/29 09:54:21;;;;;;;0.60;0.10;;;19.40;99.90;;;;;;5041348;28;20451;-83
2022/04/29 09:57:07;;;;;;;0.60;0.10;;;19.50;99.90;;;;;;5041219;28;20536;-82
2022/04/29 09:59:39;;;;;;;0.60;0.10;;;;;;;;;;5041548;28;20492;-83
2022/04/29 10:02:09;;;;;;;0.60;0.10;;;;;;;;;;5040846;28;20440;-80
2022/04/29 10:04:40;;;;;;;0.60;0.20;;;;;;;;;;5041823;28;20455;-82
2022/04/29 10:07:12;;;;;;;0.60;0.10;;;20.30;99.90;;;;;;5041775;28;21004;-82
2022/04/29 10:09:44;;;;;;;0.60;0.20;;;20.40;99.90;;;;;;5040699;28;20861;-81
2022/04/29 10:12:14;;;;;;;0.60;0.20;;;;;;;;;;5048313;28;20439;-81
2022/04/29 10:14:45;;;;;;;0.60;0.20;;;20.60;99.90;;;;;;5058013;28;20514;-83
2022/04/29 10:22:52;;;;;;;0.60;0.10;;;21.00;99.90;;;;;;5056234;28;20465;-81
2022/04/29 10:25:22;;;;;;;0.70;0.20;;;21.10;99.90;;;;;;5057042;28;20446;-81
2022/04/29 10:27:51;;;;;;;0.70;0.10;;;21.10;99.90;;;;;;5058635;28;20432;-82
2022/04/29 10:30:35;;;;;;;0.70;0.47;;;21.20;99.90;;;;;;5056742;28;20462;-82
2022/04/29 10:33:05;;;;;;;0.67;0.10;;;21.20;99.90;;;;;;5041656;28;20468;-83
2022/04/29 10:35:56;;;;;;;1.30;1.20;;;21.10;99.90;;;;;;5043910;28;20478;-81
2022/04/29 10:38:28;;;;;;;0.70;0.20;;;21.20;99.90;;;;;;5055322;28;20467;-80
2022/04/29 10:41:17;;;;;;;0.70;0.10;;;21.10;99.90;;;;;;5053675;28;20453;-83
2022/04/29 10:43:47;;;;;;;0.63;0.17;;;21.10;99.90;;;;;;5069478;28;20465;-84
2022/04/29 10:46:24;;;;;;;0.70;0.20;;;21.10;99.90;;;;;;5060714;28;20989;-84
2022/04/29 10:48:53;;;;;;;0.70;0.20;;;;;;;;;;5059786;28;20510;-83
2022/04/29 10:51:41;;;;;;;0.60;0.10;;;21.30;99.90;;;;;;5059537;28;20857;-82
2022/04/29 10:54:10;;;;;;;0.70;0.10;;;;;;;;;;5061404;28;20469;-80
2022/04/29 10:56:39;;;;;;;0.70;0.10;;;;;;;;;;5063997;28;20482;-81
2022/04/29 10:59:21;;;;;;;0.70;0.10;;;21.60;99.90;;;;;;5064180;28;20506;-80
2022/04/29 11:02:14;;;;;;;0.70;0.10;;;;;;;;;;5061683;28;20546;-83
2022/04/29 11:04:51;;;;;;;0.70;0.10;;;21.70;99.90;;;;;;5066059;28;20441;-85
2022/04/29 11:07:42;;;;;;;0.70;0.10;;;21.80;99.90;;;;;;5064184;28;20445;-83
2022/04/29 11:10:19;;;;;;;0.70;0.20;;;;;;;;;;5061670;28;20436;-82
2022/04/29 11:13:05;;;;;;;0.70;0.20;;;;;;;;;;5061300;28;20443;-81
2022/04/29 11:15:46;;;;;;;0.70;0.20;;;;;;;;;;5058537;28;20985;-82
2022/04/29 11:18:23;;;;;;;0.70;0.10;;;;;;;;;;5048198;28;20513;-83
2022/04/29 11:20:59;;;;;;;0.70;0.10;;;;;;;;;;5038260;28;20513;-83
2022/04/29 11:26:18;;;;;;;0.70;0.10;;;;;;;;;;5053226;28;20475;-82
2022/04/29 11:28:52;;;;;;;0.70;0.20;;;;;;;;;;5051628;28;20452;-81
2022/04/29 11:31:26;;;;;;;0.70;0.10;;;;;;;;;;5049662;28;20467;-82
2022/04/29 11:34:08;;;;;;;0.70;0.20;;;;;;;;;;5041247;28;20459;-83
2022/04/29 11:36:42;;;;;;;0.70;0.10;;;;;;;;;;5040064;28;20486;-82
2022/04/29 11:39:22;;;;;;;0.63;0.10;;;;;;;;;;5038988;28;20471;-81
2022/04/29 11:41:57;;;;;;;0.70;0.20;;;;;;;;;;5038969;28;20511;-81
2022/04/29 11:44:38;;;;;;;0.70;0.20;;;;;;;;;;5039098;28;20447;-82
2022/04/29 11:47:13;;;;;;;0.70;0.10;;;;;;;;;;5038293;28;20443;-82
2022/04/29 11:49:45;;;;;;;3.07;0.30;;;;;;;;;;5039820;28;20906;-82
2022/04/29 11:52:21;;;;;;;0.70;0.10;;;21.90;99.90;;;;;;5043403;28;20459;-83
2022/04/29 11:54:50;;;;;;;0.70;0.20;;;21.80;99.90;;;;;;5043126;28;20497;-82
2022/04/29 11:57:19;;;;;;;0.70;0.20;;;;;;;;;;5054343;28;20485;-81
2022/04/29 11:59:47;;;;;;;0.70;0.20;;;;;;;;;;5059683;28;20503;-81
2022/04/29 12:02:18;;;;;;;0.70;0.20;;;21.90;99.90;;;;;;5072502;28;20446;-83
2022/04/29 12:04:55;;;;;;;0.70;0.23;;;21.90;99.90;;;;;;5062868;28;20553;-80
2022/04/29 12:07:24;;;;;;;0.70;0.10;;;21.90;99.90;;;;;;5052105;28;20530;-82
2022/04/29 12:09:52;;;;;;;0.70;0.20;;;;;;;;;;5057841;28;20462;-82
2022/04/29 12:12:24;;;;;;;0.70;0.20;;;;;;;;;;5059107;28;20940;-83
2022/04/29 12:14:55;;;;;;;8.47;7.10;;;21.60;99.90;;;;;;5073120;28;20481;-82
2022/04/29 12:17:33;;;;;;;0.70;0.10;;;21.60;99.90;;;;;;5065750;28;20489;-84
2022/04/29 12:20:05;;;;;;;1.13;0.77;;;21.60;99.90;;;;;;5057755;28;20464;-81
2022/04/29 12:22:36;;;;;;;0.70;0.10;;;21.70;99.90;;;;;;5046956;28;20448;-81
2022/04/29 12:25:23;;;;;;;0.70;0.10;;;21.80;99.90;;;;;;5044421;28;20521;-83
2022/04/29 12:28:08;;;;;;;0.70;0.10;;;21.80;99.90;;;;;;5038274;28;20450;-83
2022/04/29 12:36:13;;;;;;;1.27;0.77;;;21.90;99.90;;;;;;5061442;28;20561;-80
2022/04/29 12:38:57;;;;;;;0.70;0.20;;;;;;;;;;5061437;28;20543;-82
2022/04/29 12:41:27;;;;;;;0.70;0.10;;;;;;;;;;5063439;28;20455;-83
2022/04/29 12:44:07;;;;;;;0.70;0.20;;;21.90;99.90;;;;;;5062869;28;20454;-82
2022/04/29 12:46:35;;;;;;;0.70;0.17;;;21.80;99.90;;;;;;5061155;28;20787;-82
2022/04/29 12:49:22;;;;;;;0.70;0.20;;;21.70;99.90;;;;;;5062044;28;20418;-82
2022/04/29 12:51:59;;;;;;;1.17;0.57;;;21.60;99.90;;;;;;5045325;28;20451;-82
2022/04/29 12:54:33;;;;;;;0.70;0.20;;;21.60;99.90;;;;;;5051759;28;20427;-83
2022/04/29 12:57:02;;;;;;;0.70;0.10;;;21.60;99.90;;;;;;5040239;28;20461;-83
2022/04/29 12:59:30;;;;;;;0.70;0.30;;;21.70;99.90;;;;;;5045848;28;20488;-82
2022/04/29 13:02:05;;;;;;;0.70;0.13;;;21.70;99.90;;;;;;5060472;28;20538;-83
2022/04/29 13:04:33;;;;;;;0.70;0.20;;;21.80;99.90;;;;;;5060490;28;20497;-82
2022/04/29 13:07:03;;;;;;;0.70;0.10;;;21.60;99.90;;;;;;5059209;28;20826;-83
2022/04/29 13:09:34;;;;;;;0.87;0.20;;;21.60;99.90;;;;;;5062289;28;20450;-83
2022/04/29 13:12:02;;;;;;;2.40;2.10;;;21.60;99.90;;;;;;5060936;28;20470;-83
2022/04/29 13:14:31;;;;;;;0.70;0.20;;;21.60;99.90;;;;;;5052855;28;20456;-83
2022/04/29 13:17:00;;;;;;;0.90;0.73;;;21.60;99.90;;;;;;5063137;28;20983;-83
2022/04/29 13:19:29;;;;;;;0.70;0.20;;;21.50;99.90;;;;;;5059672;28;20568;-81
2022/04/29 13:21:57;;;;;;;0.70;0.10;;;21.50;99.90;;;;;;5041660;28;20594;-82
2022/04/29 13:24:26;;;;;;;0.60;0.10;;;21.20;99.90;;;;;;5042929;28;20505;-83
2022/04/29 13:26:55;;;;;;;0.93;0.83;;;21.20;99.90;;;;;;5041858;28;20458;-83
2022/04/29 13:29:29;;;;;;;0.60;0.10;;;;;;;;;;5041872;28;20456;-81
2022/04/29 13:31:58;;;;;;;0.80;0.43;;;21.40;99.90;;;;;;5040504;28;20481;-81
2022/04/29 13:34:26;;;;;;;0.70;0.17;;;;;;;;;;5054678;28;20437;-82
2022/04/29 13:36:54;;;;;;;1.03;0.57;;;21.70;99.90;;;;;;5057247;28;20495;-81
2022/04/29 13:39:23;;;;;;;0.70;0.10;;;;;;;;;;5061233;28;20482;-81
2022/04/29 13:41:52;;;;;;;1.00;0.47;;;;;;;;;;5063010;28;20446;-84
2022/04/29 13:44:21;;;;;;;0.70;0.10;;;;;;;;;;5061989;28;20521;-82
2022/04/29 13:46:50;;;;;;;1.33;0.60;;;21.30;99.90;;;;;;5054853;28;20858;-80
2022/04/29 13:49:19;;;;;;;0.70;0.10;;;;;;;;;;5041505;28;20480;-80
2022/04/29 13:51:48;;;;;;;0.70;0.20;;;;;;;;;;5060571;28;20458;-82
2022/04/29 13:54:16;;;;;;;0.60;0.20;;;;;;;;;;5060426;28;20474;-83
2022/04/29 13:56:46;;;;;;;0.70;0.20;;;;;;;;;;5059813;28;20479;-82
2022/04/29 13:59:16;;;;;;;0.70;0.20;;;;;;;;;;5059884;28;20478;-81
2022/04/29 14:01:44;;;;;;;1.00;0.77;;;21.50;99.90;;;;;;5040817;28;20577;-83